sensor_id;sensor_type;location;lat;lon;timestamp;pressure;altitude;pressure_sealevel;temperature;humidity
5883;BME280;2967;51.488;6.618;2023-03-29T00:03:57;101418.88;;;7.74;100.00
5883;BME280;2967;51.488;6.618;2023-03-29T00:09:04;101463.97;;;7.86;100.00
5883;BME280;2967;51.488;6.618;2023-03-29T00:14:07;101452.56;;;7.86;100.00
5883;BME280;2967;51.488;6.618;2023-03-29T00:19:10;101411.75;;;7.76;100.00
5883;BME280;2967;51.488;6.618;2023-03-29T00:24:14;101415.97;;;7.80;100.00
5883;BME280;2967;51.488;6.618;2023-03-29T00:29:17;101420.47;;;7.78;100.00
5883;BME280;2967;51.488;6.618;2023-03-29T00:34:20;101431.25;;;7.92;100.00
5883;BME280;2967;51.488;6.618;2023-03-29T00:39:25;101374.00;;;7.57;100.00
5883;BME280;2967;51.488;6.618;2023-03-29T00:44:55;101414.38;;;7.96;100.00
5883;BME280;2967;51.488;6.618;2023-03-29T00:50:02;101410.31;;;7.89;100.00
5883;BME280;2967;51.488;6.618;2023-03-29T00:55:11;101410.97;;;7.74;100.00
5883;BME280;2967;51.488;6.618;2023-03-29T01:00:17;101411.16;;;7.89;100.00
5883;BME280;2967;51.488;6.618;2023-03-29T01:05:26;101396.75;;;7.98;100.00
5883;BME280;2967;51.488;6.618;2023-03-29T01:10:36;101405.63;;;7.95;100.00
5883;BME280;2967;51.488;6.618;2023-03-29T01:15:44;101400.50;;;7.92;100.00
5883;BME280;2967;51.488;6.618;2023-03-29T01:21:03;101324.25;;;7.51;100.00
5883;BME280;2967;51.488;6.618;2023-03-29T01:26:16;101386.84;;;8.03;100.00
5883;BME280;2967;51.488;6.618;2023-03-29T01:31:27;101386.97;;;8.00;100.00
5883;BME280;2967;51.488;6.618;2023-03-29T01:36:35;101378.56;;;7.92;100.00
5883;BME280;2967;51.488;6.618;2023-03-29T01:41:47;101304.81;;;7.54;100.00
5883;BME280;2967;51.488;6.618;2023-03-29T01:47:01;101350.38;;;8.32;100.00
5883;BME280;2967;51.488;6.618;2023-03-29T01:52:12;101109.25;;;7.15;100.00
5883;BME280;2967;51.488;6.618;2023-03-29T01:57:20;101284.09;;;7.84;100.00
5883;BME280;2967;51.488;6.618;2023-03-29T02:02:28;101345.59;;;8.22;100.00
5883;BME280;2967;51.488;6.618;2023-03-29T02:07:32;101336.16;;;8.16;100.00
5883;BME280;2967;51.488;6.618;2023-03-29T02:12:38;101337.28;;;8.11;100.00
5883;BME280;2967;51.488;6.618;2023-03-29T02:17:43;101328.72;;;8.06;100.00
5883;BME280;2967;51.488;6.618;2023-03-29T02:22:52;101287.72;;;7.82;100.00
5883;BME280;2967;51.488;6.618;2023-03-29T02:27:58;101253.97;;;7.71;100.00
5883;BME280;2967;51.488;6.618;2023-03-29T02:33:12;101243.66;;;7.67;100.00
5883;BME280;2967;51.488;6.618;2023-03-29T02:38:16;101311.88;;;8.10;100.00
5883;BME280;2967;51.488;6.618;2023-03-29T02:43:19;101317.91;;;8.12;100.00
5883;BME280;2967;51.488;6.618;2023-03-29T02:48:29;101315.34;;;8.10;100.00
5883;BME280;2967;51.488;6.618;2023-03-29T02:53:37;101254.56;;;7.78;100.00
5883;BME280;2967;51.488;6.618;2023-03-29T02:58:42;101315.13;;;8.15;100.00
5883;BME280;2967;51.488;6.618;2023-03-29T03:03:47;101314.19;;;8.16;100.00
5883;BME280;2967;51.488;6.618;2023-03-29T03:08:51;101290.47;;;8.16;100.00
5883;BME280;2967;51.488;6.618;2023-03-29T03:13:54;101290.41;;;8.19;100.00
5883;BME280;2967;51.488;6.618;2023-03-29T03:18:58;101237.88;;;7.96;100.00
5883;BME280;2967;51.488;6.618;2023-03-29T03:24:01;101287.75;;;8.19;100.00
5883;BME280;2967;51.488;6.618;2023-03-29T03:29:04;101278.06;;;8.19;100.00
5883;BME280;2967;51.488;6.618;2023-03-29T03:34:37;101278.94;;;8.20;100.00
5883;BME280;2967;51.488;6.618;2023-03-29T03:39:40;101274.38;;;8.23;100.00
5883;BME280;2967;51.488;6.618;2023-03-29T03:44:44;101255.78;;;8.08;100.00
5883;BME280;2967;51.488;6.618;2023-03-29T03:50:12;101181.94;;;7.54;100.00
5883;BME280;2967;51.488;6.618;2023-03-29T03:55:15;101293.75;;;8.22;100.00
5883;BME280;2967;51.488;6.618;2023-03-29T04:00:25;101267.69;;;8.15;100.00
5883;BME280;2967;51.488;6.618;2023-03-29T04:05:48;101250.78;;;8.02;100.00
5883;BME280;2967;51.488;6.618;2023-03-29T04:10:57;101275.97;;;8.26;100.00
5883;BME280;2967;51.488;6.618;2023-03-29T04:16:08;101287.63;;;8.22;100.00
5883;BME280;2967;51.488;6.618;2023-03-29T04:21:13;101269.50;;;8.14;100.00
5883;BME280;2967;51.488;6.618;2023-03-29T04:26:17;101219.91;;;7.87;100.00
5883;BME280;2967;51.488;6.618;2023-03-29T04:31:23;101271.81;;;8.22;100.00
5883;BME280;2967;51.488;6.618;2023-03-29T04:36:51;101255.63;;;8.11;100.00
5883;BME280;2967;51.488;6.618;2023-03-29T04:41:57;101252.69;;;8.17;100.00
5883;BME280;2967;51.488;6.618;2023-03-29T04:47:02;101248.25;;;8.19;100.00
5883;BME280;2967;51.488;6.618;2023-03-29T04:52:26;101243.16;;;8.14;100.00
5883;BME280;2967;51.488;6.618;2023-03-29T04:57:36;101235.31;;;8.13;100.00
5883;BME280;2967;51.488;6.618;2023-03-29T05:02:50;101195.13;;;7.91;100.00
5883;BME280;2967;51.488;6.618;2023-03-29T05:07:55;101176.50;;;7.77;100.00
5883;BME280;2967;51.488;6.618;2023-03-29T05:13:06;101227.41;;;8.13;100.00
5883;BME280;2967;51.488;6.618;2023-03-29T05:18:23;101233.44;;;8.15;100.00
5883;BME280;2967;51.488;6.618;2023-03-29T05:23:28;101224.84;;;8.11;100.00
5883;BME280;2967;51.488;6.618;2023-03-29T05:28:49;101211.66;;;8.11;100.00
5883;BME280;2967;51.488;6.618;2023-03-29T05:33:53;101178.56;;;8.06;100.00
5883;BME280;2967;51.488;6.618;2023-03-29T05:38:57;101205.06;;;8.21;100.00
5883;BME280;2967;51.488;6.618;2023-03-29T05:44:01;101170.75;;;7.86;100.00
5883;BME280;2967;51.488;6.618;2023-03-29T05:49:05;101219.09;;;8.22;100.00
5883;BME280;2967;51.488;6.618;2023-03-29T05:54:28;101215.38;;;8.26;100.00
5883;BME280;2967;51.488;6.618;2023-03-29T05:59:31;101223.22;;;8.27;100.00
5883;BME280;2967;51.488;6.618;2023-03-29T06:04:34;101212.84;;;8.24;100.00
5883;BME280;2967;51.488;6.618;2023-03-29T06:09:59;101142.38;;;7.92;100.00
5883;BME280;2967;51.488;6.618;2023-03-29T06:15:04;101185.06;;;7.99;100.00
5883;BME280;2967;51.488;6.618;2023-03-29T06:20:25;101191.22;;;8.16;100.00
5883;BME280;2967;51.488;6.618;2023-03-29T06:25:36;101116.94;;;7.91;100.00
5883;BME280;2967;51.488;6.618;2023-03-29T06:30:40;101166.56;;;8.19;100.00
5883;BME280;2967;51.488;6.618;2023-03-29T06:35:45;101180.81;;;8.32;100.00
5883;BME280;2967;51.488;6.618;2023-03-29T06:41:02;101229.94;;;8.68;100.00
5883;BME280;2967;51.488;6.618;2023-03-29T06:46:26;101227.13;;;8.71;100.00
5883;BME280;2967;51.488;6.618;2023-03-29T06:51:40;101239.88;;;8.80;100.00
5883;BME280;2967;51.488;6.618;2023-03-29T06:56:48;101121.84;;;8.16;100.00
5883;BME280;2967;51.488;6.618;2023-03-29T07:02:14;100893.56;;;6.79;100.00
5883;BME280;2967;51.488;6.618;2023-03-29T07:08:07;101032.56;;;7.76;100.00
5883;BME280;2967;51.488;6.618;2023-03-29T07:14:02;101255.47;;;9.02;100.00
5883;BME280;2967;51.488;6.618;2023-03-29T07:19:26;101241.88;;;9.09;100.00
5883;BME280;2967;51.488;6.618;2023-03-29T07:25:10;101002.69;;;7.60;100.00
5883;BME280;2967;51.488;6.618;2023-03-29T07:30:20;100739.06;;;6.15;100.00
5883;BME280;2967;51.488;6.618;2023-03-29T07:35:25;101254.13;;;9.27;100.00
5883;BME280;2967;51.488;6.618;2023-03-29T07:40:28;101222.16;;;9.16;100.00
5883;BME280;2967;51.488;6.618;2023-03-29T07:45:33;101251.03;;;9.36;100.00
5883;BME280;2967;51.488;6.618;2023-03-29T07:50:42;101242.47;;;9.31;100.00
5883;BME280;2967;51.488;6.618;2023-03-29T07:55:46;101182.81;;;9.12;100.00
5883;BME280;2967;51.488;6.618;2023-03-29T08:01:12;101160.72;;;8.97;100.00
5883;BME280;2967;51.488;6.618;2023-03-29T08:06:44;101263.53;;;9.65;100.00
5883;BME280;2967;51.488;6.618;2023-03-29T08:11:47;101263.44;;;9.67;100.00
5883;BME280;2967;51.488;6.618;2023-03-29T08:16:59;101263.63;;;9.79;100.00
5883;BME280;2967;51.488;6.618;2023-03-29T08:22:03;101271.66;;;9.78;100.00
5883;BME280;2967;51.488;6.618;2023-03-29T08:27:28;101251.59;;;9.58;100.00
5883;BME280;2967;51.488;6.618;2023-03-29T08:32:33;101230.25;;;9.46;100.00
5883;BME280;2967;51.488;6.618;2023-03-29T08:37:38;101253.50;;;9.72;100.00
5883;BME280;2967;51.488;6.618;2023-03-29T08:42:54;101253.50;;;9.72;100.00
5883;BME280;2967;51.488;6.618;2023-03-29T08:48:15;101214.75;;;9.72;100.00
5883;BME280;2967;51.488;6.618;2023-03-29T08:53:26;101153.69;;;9.46;100.00
5883;BME280;2967;51.488;6.618;2023-03-29T08:58:49;101232.09;;;10.09;100.00
5883;BME280;2967;51.488;6.618;2023-03-29T09:04:01;101197.69;;;9.93;100.00
5883;BME280;2967;51.488;6.618;2023-03-29T09:09:21;101233.00;;;10.39;100.00
5883;BME280;2967;51.488;6.618;2023-03-29T09:14:47;101119.97;;;9.82;100.00
5883;BME280;2967;51.488;6.618;2023-03-29T09:20:01;101238.31;;;10.68;100.00
5883;BME280;2967;51.488;6.618;2023-03-29T09:25:12;101245.72;;;10.77;100.00
5883;BME280;2967;51.488;6.618;2023-03-29T09:30:25;101157.31;;;10.51;100.00
5883;BME280;2967;51.488;6.618;2023-03-29T09:35:39;101242.50;;;11.01;100.00
5883;BME280;2967;51.488;6.618;2023-03-29T09:40:49;101219.88;;;10.96;100.00
5883;BME280;2967;51.488;6.618;2023-03-29T09:45:57;101165.47;;;10.76;100.00
5883;BME280;2967;51.488;6.618;2023-03-29T09:51:07;101200.53;;;11.09;100.00
5883;BME280;2967;51.488;6.618;2023-03-29T09:56:15;101235.47;;;11.44;100.00
5883;BME280;2967;51.488;6.618;2023-03-29T10:01:34;101228.47;;;11.43;100.00
5883;BME280;2967;51.488;6.618;2023-03-29T10:06:44;101190.06;;;11.36;100.00
5883;BME280;2967;51.488;6.618;2023-03-29T10:11:51;101133.78;;;11.18;100.00
5883;BME280;2967;51.488;6.618;2023-03-29T10:16:55;101084.31;;;11.19;100.00
5883;BME280;2967;51.488;6.618;2023-03-29T10:22:15;101215.63;;;12.19;100.00
5883;BME280;2967;51.488;6.618;2023-03-29T10:40:20;101214.19;;;12.28;100.00
5883;BME280;2967;51.488;6.618;2023-03-29T10:45:34;101099.69;;;11.54;100.00
5883;BME280;2967;51.488;6.618;2023-03-29T10:50:46;101210.50;;;12.30;100.00
5883;BME280;2967;51.488;6.618;2023-03-29T10:56:04;101195.09;;;12.35;100.00
5883;BME280;2967;51.488;6.618;2023-03-29T11:01:17;101143.75;;;12.10;100.00
5883;BME280;2967;51.488;6.618;2023-03-29T11:06:26;101120.34;;;12.16;100.00
5883;BME280;2967;51.488;6.618;2023-03-29T11:11:48;101180.16;;;12.73;100.00
5883;BME280;2967;51.488;6.618;2023-03-29T11:17:22;101181.50;;;13.05;100.00
5883;BME280;2967;51.488;6.618;2023-03-29T11:22:38;101137.75;;;12.98;100.00
5883;BME280;2967;51.488;6.618;2023-03-29T11:27:50;101174.78;;;13.37;100.00
5883;BME280;2967;51.488;6.618;2023-03-29T11:33:04;101174.91;;;13.48;100.00
5883;BME280;2967;51.488;6.618;2023-03-29T11:38:24;100787.50;;;11.36;100.00
5883;BME280;2967;51.488;6.618;2023-03-29T11:43:34;101006.41;;;12.90;100.00
5883;BME280;2967;51.488;6.618;2023-03-29T11:48:47;101134.66;;;13.65;100.00
5883;BME280;2967;51.488;6.618;2023-03-29T11:53:58;101139.69;;;13.57;100.00
5883;BME280;2967;51.488;6.618;2023-03-29T11:59:33;101148.75;;;13.54;100.00
5883;BME280;2967;51.488;6.618;2023-03-29T12:04:43;100951.91;;;12.48;100.00
5883;BME280;2967;51.488;6.618;2023-03-29T12:09:51;101126.56;;;13.79;100.00
5883;BME280;2967;51.488;6.618;2023-03-29T12:15:04;101128.19;;;13.92;100.00
5883;BME280;2967;51.488;6.618;2023-03-29T12:20:14;101065.94;;;13.48;100.00
5883;BME280;2967;51.488;6.618;2023-03-29T12:25:29;101085.94;;;13.77;100.00
5883;BME280;2967;51.488;6.618;2023-03-29T12:30:48;101108.09;;;14.24;100.00
5883;BME280;2967;51.488;6.618;2023-03-29T12:36:13;100965.69;;;13.50;100.00
5883;BME280;2967;51.488;6.618;2023-03-29T12:42:06;101043.03;;;14.05;100.00
5883;BME280;2967;51.488;6.618;2023-03-29T12:47:42;101132.19;;;14.57;100.00
5883;BME280;2967;51.488;6.618;2023-03-29T12:52:46;101108.34;;;14.67;100.00
5883;BME280;2967;51.488;6.618;2023-03-29T12:57:59;101007.75;;;14.14;100.00
5883;BME280;2967;51.488;6.618;2023-03-29T13:03:20;101103.03;;;14.78;100.00
5883;BME280;2967;51.488;6.618;2023-03-29T13:08:26;101108.50;;;14.65;100.00
5883;BME280;2967;51.488;6.618;2023-03-29T13:13:33;101089.84;;;14.65;100.00
5883;BME280;2967;51.488;6.618;2023-03-29T13:18:49;101092.63;;;14.75;100.00
5883;BME280;2967;51.488;6.618;2023-03-29T13:24:00;101060.22;;;14.81;100.00
5883;BME280;2967;51.488;6.618;2023-03-29T13:29:20;101084.31;;;15.01;100.00
5883;BME280;2967;51.488;6.618;2023-03-29T13:34:37;101015.19;;;14.89;100.00
5883;BME280;2967;51.488;6.618;2023-03-29T13:39:51;101064.94;;;15.21;100.00
5883;BME280;2967;51.488;6.618;2023-03-29T13:45:04;100956.81;;;14.64;100.00
5883;BME280;2967;51.488;6.618;2023-03-29T13:50:31;101050.06;;;15.19;100.00
5883;BME280;2967;51.488;6.618;2023-03-29T13:55:43;101047.59;;;15.27;100.00
5883;BME280;2967;51.488;6.618;2023-03-29T14:00:51;100829.09;;;14.20;100.00
5883;BME280;2967;51.488;6.618;2023-03-29T14:06:00;100985.63;;;15.03;100.00
5883;BME280;2967;51.488;6.618;2023-03-29T14:11:07;101011.16;;;15.27;100.00
5883;BME280;2967;51.488;6.618;2023-03-29T14:16:34;100845.66;;;14.34;100.00
5883;BME280;2967;51.488;6.618;2023-03-29T14:21:44;100818.66;;;14.17;100.00
5883;BME280;2967;51.488;6.618;2023-03-29T14:26:48;101007.91;;;15.35;100.00
5883;BME280;2967;51.488;6.618;2023-03-29T14:31:53;100967.44;;;15.19;100.00
5883;BME280;2967;51.488;6.618;2023-03-29T14:36:57;100991.16;;;15.44;100.00
5883;BME280;2967;51.488;6.618;2023-03-29T14:42:01;100988.03;;;15.39;100.00
5883;BME280;2967;51.488;6.618;2023-03-29T14:47:04;100934.00;;;15.15;100.00
5883;BME280;2967;51.488;6.618;2023-03-29T14:52:09;100930.75;;;15.11;100.00
5883;BME280;2967;51.488;6.618;2023-03-29T14:57:15;100748.41;;;14.08;100.00
5883;BME280;2967;51.488;6.618;2023-03-29T15:02:32;100617.31;;;13.31;100.00
5883;BME280;2967;51.488;6.618;2023-03-29T15:08:25;100603.44;;;13.27;100.00
5883;BME280;2967;51.488;6.618;2023-03-29T15:14:54;100699.44;;;14.11;100.00
5883;BME280;2967;51.488;6.618;2023-03-29T15:20:57;100936.88;;;15.45;100.00
5883;BME280;2967;51.488;6.618;2023-03-29T15:26:12;100930.22;;;15.39;100.00
5883;BME280;2967;51.488;6.618;2023-03-29T15:31:17;100923.31;;;15.37;100.00
5883;BME280;2967;51.488;6.618;2023-03-29T15:36:22;100819.63;;;14.60;100.00
5883;BME280;2967;51.488;6.618;2023-03-29T15:42:00;100458.69;;;12.67;100.00
5883;BME280;2967;51.488;6.618;2023-03-29T15:47:22;100609.09;;;13.56;100.00
5883;BME280;2967;51.488;6.618;2023-03-29T15:52:32;100799.56;;;14.87;100.00
5883;BME280;2967;51.488;6.618;2023-03-29T15:57:38;100806.53;;;14.99;100.00
5883;BME280;2967;51.488;6.618;2023-03-29T16:02:45;100869.06;;;15.58;100.00
5883;BME280;2967;51.488;6.618;2023-03-29T16:08:00;100674.34;;;14.46;100.00
5883;BME280;2967;51.488;6.618;2023-03-29T16:13:39;100642.28;;;14.37;100.00
5883;BME280;2967;51.488;6.618;2023-03-29T16:18:43;100518.50;;;13.59;100.00
5883;BME280;2967;51.488;6.618;2023-03-29T16:23:56;100608.56;;;14.37;100.00
5883;BME280;2967;51.488;6.618;2023-03-29T16:29:13;100666.41;;;14.87;100.00
5883;BME280;2967;51.488;6.618;2023-03-29T16:34:22;100614.22;;;14.44;100.00
5883;BME280;2967;51.488;6.618;2023-03-29T16:39:32;100752.69;;;15.16;100.00
5883;BME280;2967;51.488;6.618;2023-03-29T16:44:43;100809.38;;;15.50;100.00
5883;BME280;2967;51.488;6.618;2023-03-29T16:50:11;100721.13;;;14.80;100.00
5883;BME280;2967;51.488;6.618;2023-03-29T16:56:03;100806.31;;;15.34;100.00
5883;BME280;2967;51.488;6.618;2023-03-29T17:01:42;100567.72;;;13.85;100.00
5883;BME280;2967;51.488;6.618;2023-03-29T17:06:45;100597.28;;;14.02;100.00
5883;BME280;2967;51.488;6.618;2023-03-29T17:11:52;100748.78;;;15.00;100.00
5883;BME280;2967;51.488;6.618;2023-03-29T17:16:57;100792.13;;;15.02;100.00
5883;BME280;2967;51.488;6.618;2023-03-29T17:22:00;100795.25;;;15.07;100.00
5883;BME280;2967;51.488;6.618;2023-03-29T17:27:04;100585.03;;;13.68;100.00
5883;BME280;2967;51.488;6.618;2023-03-29T17:32:33;100588.75;;;13.88;100.00
5883;BME280;2967;51.488;6.618;2023-03-29T17:38:27;100803.16;;;14.97;100.00
5883;BME280;2967;51.488;6.618;2023-03-29T17:44:24;100688.50;;;14.36;100.00
5883;BME280;2967;51.488;6.618;2023-03-29T17:55:57;100509.41;;;13.19;100.00
5883;BME280;2967;51.488;6.618;2023-03-29T18:01:19;100740.56;;;14.60;100.00
5883;BME280;2967;51.488;6.618;2023-03-29T18:06:23;100610.59;;;13.91;100.00
5883;BME280;2967;51.488;6.618;2023-03-29T18:11:28;100627.56;;;14.33;100.00
5883;BME280;2967;51.488;6.618;2023-03-29T18:16:32;100728.19;;;15.02;100.00
5883;BME280;2967;51.488;6.618;2023-03-29T18:21:43;100589.13;;;14.15;100.00
5883;BME280;2967;51.488;6.618;2023-03-29T18:26:48;100694.88;;;14.55;100.00
5883;BME280;2967;51.488;6.618;2023-03-29T18:54:43;100713.47;;;14.66;100.00
5883;BME280;2967;51.488;6.618;2023-03-29T19:01:03;100709.22;;;14.64;100.00
5883;BME280;2967;51.488;6.618;2023-03-29T19:20:13;100336.31;;;12.17;100.00
5883;BME280;2967;51.488;6.618;2023-03-29T19:26:44;100560.66;;;13.63;100.00
5883;BME280;2967;51.488;6.618;2023-03-29T19:32:54;100292.19;;;12.16;100.00
5883;BME280;2967;51.488;6.618;2023-03-29T19:38:37;100694.91;;;14.44;100.00
5883;BME280;2967;51.488;6.618;2023-03-29T19:44:09;100565.34;;;13.71;100.00
5883;BME280;2967;51.488;6.618;2023-03-29T19:49:24;100692.34;;;14.43;100.00
5883;BME280;2967;51.488;6.618;2023-03-29T20:00:14;100548.91;;;13.66;100.00
5883;BME280;2967;51.488;6.618;2023-03-29T20:05:21;100504.03;;;13.41;100.00
5883;BME280;2967;51.488;6.618;2023-03-29T20:10:25;100650.09;;;14.29;100.00
5883;BME280;2967;51.488;6.618;2023-03-29T20:15:31;100658.28;;;14.26;100.00
5883;BME280;2967;51.488;6.618;2023-03-29T20:20:38;100604.41;;;14.02;100.00
5883;BME280;2967;51.488;6.618;2023-03-29T20:25:41;100629.78;;;14.17;100.00
5883;BME280;2967;51.488;6.618;2023-03-29T20:30:46;100576.78;;;13.82;100.00
5883;BME280;2967;51.488;6.618;2023-03-29T20:35:54;100597.78;;;13.96;100.00
5883;BME280;2967;51.488;6.618;2023-03-29T20:40:57;100560.38;;;13.77;100.00
5883;BME280;2967;51.488;6.618;2023-03-29T20:46:08;100439.59;;;13.17;100.00
5883;BME280;2967;51.488;6.618;2023-03-29T20:51:19;100518.50;;;13.59;100.00
5883;BME280;2967;51.488;6.618;2023-03-29T20:56:22;100597.16;;;14.04;100.00
5883;BME280;2967;51.488;6.618;2023-03-29T21:01:28;100343.50;;;12.59;100.00
5883;BME280;2967;51.488;6.618;2023-03-29T21:06:31;100538.56;;;13.94;100.00
5883;BME280;2967;51.488;6.618;2023-03-29T21:11:36;100566.31;;;14.44;100.00
5883;BME280;2967;51.488;6.618;2023-03-29T21:16:40;100343.22;;;13.26;100.00
5883;BME280;2967;51.488;6.618;2023-03-29T21:21:44;100372.94;;;13.51;100.00
5883;BME280;2967;51.488;6.618;2023-03-29T21:26:48;100303.88;;;13.00;100.00
5883;BME280;2967;51.488;6.618;2023-03-29T21:37:29;100519.97;;;14.15;100.00
5883;BME280;2967;51.488;6.618;2023-03-29T21:42:33;100436.31;;;13.67;100.00
5883;BME280;2967;51.488;6.618;2023-03-29T21:47:41;100484.47;;;13.84;100.00
5883;BME280;2967;51.488;6.618;2023-03-29T21:52:45;100514.97;;;14.01;100.00
5883;BME280;2967;51.488;6.618;2023-03-29T21:57:50;100515.47;;;13.95;100.00
5883;BME280;2967;51.488;6.618;2023-03-29T22:03:01;100493.03;;;13.88;100.00
5883;BME280;2967;51.488;6.618;2023-03-29T22:08:06;100508.19;;;13.97;100.00
5883;BME280;2967;51.488;6.618;2023-03-29T22:13:11;100497.59;;;13.86;100.00
5883;BME280;2967;51.488;6.618;2023-03-29T22:18:17;100503.16;;;13.94;100.00
5883;BME280;2967;51.488;6.618;2023-03-29T22:23:28;100418.38;;;13.48;100.00
5883;BME280;2967;51.488;6.618;2023-03-29T22:28:32;100505.09;;;13.92;100.00
5883;BME280;2967;51.488;6.618;2023-03-29T22:33:37;100456.97;;;13.74;100.00
5883;BME280;2967;51.488;6.618;2023-03-29T22:38:42;100476.94;;;13.89;100.00
5883;BME280;2967;51.488;6.618;2023-03-29T22:43:47;100485.19;;;13.86;100.00
5883;BME280;2967;51.488;6.618;2023-03-29T22:48:49;100419.25;;;13.49;100.00
5883;BME280;2967;51.488;6.618;2023-03-29T22:53:54;100475.19;;;13.79;100.00
5883;BME280;2967;51.488;6.618;2023-03-29T22:58:57;100474.44;;;13.77;100.00
5883;BME280;2967;51.488;6.618;2023-03-29T23:03:59;100471.06;;;13.75;100.00
5883;BME280;2967;51.488;6.618;2023-03-29T23:09:05;100373.81;;;13.20;100.00
5883;BME280;2967;51.488;6.618;2023-03-29T23:14:07;100453.22;;;13.66;100.00
5883;BME280;2967;51.488;6.618;2023-03-29T23:19:10;100456.03;;;13.64;100.00
5883;BME280;2967;51.488;6.618;2023-03-29T23:24:14;100424.06;;;13.44;100.00
5883;BME280;2967;51.488;6.618;2023-03-29T23:29:22;100458.16;;;13.70;100.00
5883;BME280;2967;51.488;6.618;2023-03-29T23:34:28;100422.63;;;13.51;100.00
5883;BME280;2967;51.488;6.618;2023-03-29T23:39:32;100408.47;;;13.50;100.00
5883;BME280;2967;51.488;6.618;2023-03-29T23:44:36;100438.56;;;13.71;100.00
5883;BME280;2967;51.488;6.618;2023-03-29T23:49:38;100415.31;;;13.64;100.00
5883;BME280;2967;51.488;6.618;2023-03-29T23:54:43;100368.41;;;13.42;100.00
5883;BME280;2967;51.488;6.618;2023-03-29T23:59:47;100387.53;;;13.57;100.00
